sensor_id;sensor_type;location;lat;lon;timestamp;P1;durP1;ratioP1;P2;durP2;ratioP2
17175;SDS011;8703;48.996;9.594;2023-06-14T00:02:06;3.73;;;3.13;;
17175;SDS011;8703;48.996;9.594;2023-06-14T00:04:34;5.07;;;3.00;;
17175;SDS011;8703;48.996;9.594;2023-06-14T00:07:03;3.60;;;3.00;;
17175;SDS011;8703;48.996;9.594;2023-06-14T00:09:33;3.93;;;3.00;;
17175;SDS011;8703;48.996;9.594;2023-06-14T00:12:00;4.43;;;3.07;;
17175;SDS011;8703;48.996;9.594;2023-06-14T00:14:27;4.20;;;3.00;;
17175;SDS011;8703;48.996;9.594;2023-06-14T00:16:55;3.77;;;2.60;;
17175;SDS011;8703;48.996;9.594;2023-06-14T00:19:23;4.30;;;3.10;;
17175;SDS011;8703;48.996;9.594;2023-06-14T00:21:51;4.40;;;2.93;;
17175;SDS011;8703;48.996;9.594;2023-06-14T00:24:19;4.03;;;2.90;;
17175;SDS011;8703;48.996;9.594;2023-06-14T00:26:47;3.87;;;2.70;;
17175;SDS011;8703;48.996;9.594;2023-06-14T00:29:14;4.00;;;3.00;;
17175;SDS011;8703;48.996;9.594;2023-06-14T00:31:41;3.70;;;3.03;;
17175;SDS011;8703;48.996;9.594;2023-06-14T00:34:09;4.43;;;3.13;;
17175;SDS011;8703;48.996;9.594;2023-06-14T00:36:36;3.73;;;2.90;;
17175;SDS011;8703;48.996;9.594;2023-06-14T00:39:03;4.27;;;3.03;;
17175;SDS011;8703;48.996;9.594;2023-06-14T00:41:32;4.20;;;3.20;;
17175;SDS011;8703;48.996;9.594;2023-06-14T00:43:59;3.93;;;3.23;;
17175;SDS011;8703;48.996;9.594;2023-06-14T00:46:27;4.20;;;3.10;;
17175;SDS011;8703;48.996;9.594;2023-06-14T00:48:55;3.97;;;3.10;;
17175;SDS011;8703;48.996;9.594;2023-06-14T00:51:23;4.07;;;3.13;;
17175;SDS011;8703;48.996;9.594;2023-06-14T00:53:51;3.50;;;2.97;;
17175;SDS011;8703;48.996;9.594;2023-06-14T00:56:18;4.70;;;3.53;;
17175;SDS011;8703;48.996;9.594;2023-06-14T00:58:47;4.07;;;3.00;;
17175;SDS011;8703;48.996;9.594;2023-06-14T01:01:16;3.73;;;3.20;;
17175;SDS011;8703;48.996;9.594;2023-06-14T01:03:43;4.17;;;3.20;;
17175;SDS011;8703;48.996;9.594;2023-06-14T01:06:14;5.33;;;3.23;;
17175;SDS011;8703;48.996;9.594;2023-06-14T01:08:55;7.07;;;3.40;;
17175;SDS011;8703;48.996;9.594;2023-06-14T01:11:28;4.03;;;3.37;;
17175;SDS011;8703;48.996;9.594;2023-06-14T01:14:01;5.43;;;3.33;;
17175;SDS011;8703;48.996;9.594;2023-06-14T01:16:29;4.10;;;3.10;;
17175;SDS011;8703;48.996;9.594;2023-06-14T01:18:57;4.90;;;3.60;;
17175;SDS011;8703;48.996;9.594;2023-06-14T01:21:25;3.80;;;3.00;;
17175;SDS011;8703;48.996;9.594;2023-06-14T01:23:54;5.43;;;3.30;;
17175;SDS011;8703;48.996;9.594;2023-06-14T01:26:22;4.67;;;3.33;;
17175;SDS011;8703;48.996;9.594;2023-06-14T01:28:51;3.67;;;3.20;;
17175;SDS011;8703;48.996;9.594;2023-06-14T01:31:23;4.60;;;3.13;;
17175;SDS011;8703;48.996;9.594;2023-06-14T01:33:51;4.47;;;3.20;;
17175;SDS011;8703;48.996;9.594;2023-06-14T01:36:19;3.63;;;3.23;;
17175;SDS011;8703;48.996;9.594;2023-06-14T01:38:47;3.80;;;3.40;;
17175;SDS011;8703;48.996;9.594;2023-06-14T01:41:17;5.10;;;3.40;;
17175;SDS011;8703;48.996;9.594;2023-06-14T01:43:45;6.90;;;3.60;;
17175;SDS011;8703;48.996;9.594;2023-06-14T01:46:13;4.43;;;4.00;;
17175;SDS011;8703;48.996;9.594;2023-06-14T01:48:42;4.37;;;3.50;;
17175;SDS011;8703;48.996;9.594;2023-06-14T01:51:09;3.97;;;3.50;;
17175;SDS011;8703;48.996;9.594;2023-06-14T01:53:37;4.97;;;3.40;;
17175;SDS011;8703;48.996;9.594;2023-06-14T01:56:05;4.90;;;3.20;;
17175;SDS011;8703;48.996;9.594;2023-06-14T01:58:34;4.73;;;3.53;;
17175;SDS011;8703;48.996;9.594;2023-06-14T02:01:01;4.83;;;3.27;;
17175;SDS011;8703;48.996;9.594;2023-06-14T02:03:30;5.53;;;3.60;;
17175;SDS011;8703;48.996;9.594;2023-06-14T02:05:57;4.53;;;3.30;;
17175;SDS011;8703;48.996;9.594;2023-06-14T02:08:25;5.20;;;3.50;;
17175;SDS011;8703;48.996;9.594;2023-06-14T02:10:52;4.60;;;2.97;;
17175;SDS011;8703;48.996;9.594;2023-06-14T02:13:19;4.40;;;3.13;;
17175;SDS011;8703;48.996;9.594;2023-06-14T02:15:48;4.20;;;3.23;;
17175;SDS011;8703;48.996;9.594;2023-06-14T02:18:19;4.30;;;3.20;;
17175;SDS011;8703;48.996;9.594;2023-06-14T02:20:47;5.30;;;3.10;;
17175;SDS011;8703;48.996;9.594;2023-06-14T02:23:14;5.70;;;3.30;;
17175;SDS011;8703;48.996;9.594;2023-06-14T02:25:41;3.93;;;3.33;;
17175;SDS011;8703;48.996;9.594;2023-06-14T02:28:10;4.33;;;3.30;;
17175;SDS011;8703;48.996;9.594;2023-06-14T02:30:37;3.30;;;2.90;;
17175;SDS011;8703;48.996;9.594;2023-06-14T02:33:07;3.90;;;3.27;;
17175;SDS011;8703;48.996;9.594;2023-06-14T02:35:37;4.33;;;3.80;;
17175;SDS011;8703;48.996;9.594;2023-06-14T02:38:04;4.30;;;3.30;;
17175;SDS011;8703;48.996;9.594;2023-06-14T02:40:32;4.93;;;3.03;;
17175;SDS011;8703;48.996;9.594;2023-06-14T02:42:59;4.60;;;3.17;;
17175;SDS011;8703;48.996;9.594;2023-06-14T02:45:26;4.70;;;3.13;;
17175;SDS011;8703;48.996;9.594;2023-06-14T02:47:54;3.57;;;3.07;;
17175;SDS011;8703;48.996;9.594;2023-06-14T02:50:23;5.50;;;3.17;;
17175;SDS011;8703;48.996;9.594;2023-06-14T02:52:51;3.73;;;3.10;;
17175;SDS011;8703;48.996;9.594;2023-06-14T02:55:20;4.03;;;3.30;;
17175;SDS011;8703;48.996;9.594;2023-06-14T02:57:48;4.23;;;3.40;;
17175;SDS011;8703;48.996;9.594;2023-06-14T03:00:16;7.57;;;3.33;;
17175;SDS011;8703;48.996;9.594;2023-06-14T03:02:44;6.27;;;3.63;;
17175;SDS011;8703;48.996;9.594;2023-06-14T03:05:12;6.23;;;3.37;;
17175;SDS011;8703;48.996;9.594;2023-06-14T03:07:40;6.60;;;3.27;;
17175;SDS011;8703;48.996;9.594;2023-06-14T03:10:10;4.73;;;3.40;;
17175;SDS011;8703;48.996;9.594;2023-06-14T03:12:38;3.83;;;3.30;;
17175;SDS011;8703;48.996;9.594;2023-06-14T03:15:05;5.23;;;3.10;;
17175;SDS011;8703;48.996;9.594;2023-06-14T03:17:34;4.40;;;3.40;;
17175;SDS011;8703;48.996;9.594;2023-06-14T03:20:04;5.00;;;3.40;;
17175;SDS011;8703;48.996;9.594;2023-06-14T03:22:33;4.37;;;3.20;;
17175;SDS011;8703;48.996;9.594;2023-06-14T03:25:02;4.97;;;3.33;;
17175;SDS011;8703;48.996;9.594;2023-06-14T03:27:30;4.43;;;3.60;;
17175;SDS011;8703;48.996;9.594;2023-06-14T03:29:58;4.10;;;3.10;;
17175;SDS011;8703;48.996;9.594;2023-06-14T03:32:25;3.70;;;3.23;;
17175;SDS011;8703;48.996;9.594;2023-06-14T03:34:53;4.43;;;3.20;;
17175;SDS011;8703;48.996;9.594;2023-06-14T03:37:20;4.80;;;3.03;;
17175;SDS011;8703;48.996;9.594;2023-06-14T03:39:47;4.13;;;3.30;;
17175;SDS011;8703;48.996;9.594;2023-06-14T03:42:16;4.37;;;3.50;;
17175;SDS011;8703;48.996;9.594;2023-06-14T03:44:43;5.60;;;3.20;;
17175;SDS011;8703;48.996;9.594;2023-06-14T03:47:11;4.43;;;3.43;;
17175;SDS011;8703;48.996;9.594;2023-06-14T03:49:38;6.50;;;3.27;;
17175;SDS011;8703;48.996;9.594;2023-06-14T03:52:06;4.77;;;3.33;;
17175;SDS011;8703;48.996;9.594;2023-06-14T03:54:33;5.77;;;3.40;;
17175;SDS011;8703;48.996;9.594;2023-06-14T03:57:01;3.50;;;3.20;;
17175;SDS011;8703;48.996;9.594;2023-06-14T03:59:29;3.63;;;3.10;;
17175;SDS011;8703;48.996;9.594;2023-06-14T04:01:57;4.93;;;3.30;;
17175;SDS011;8703;48.996;9.594;2023-06-14T04:04:24;4.40;;;3.80;;
17175;SDS011;8703;48.996;9.594;2023-06-14T04:06:53;5.50;;;3.43;;
17175;SDS011;8703;48.996;9.594;2023-06-14T04:09:21;4.10;;;3.50;;
17175;SDS011;8703;48.996;9.594;2023-06-14T04:11:49;5.67;;;3.80;;
17175;SDS011;8703;48.996;9.594;2023-06-14T04:14:18;4.50;;;3.33;;
17175;SDS011;8703;48.996;9.594;2023-06-14T04:16:47;5.47;;;3.80;;
17175;SDS011;8703;48.996;9.594;2023-06-14T04:19:15;4.57;;;3.43;;
17175;SDS011;8703;48.996;9.594;2023-06-14T04:21:42;4.80;;;3.27;;
17175;SDS011;8703;48.996;9.594;2023-06-14T04:24:10;5.60;;;3.17;;
17175;SDS011;8703;48.996;9.594;2023-06-14T04:26:38;4.53;;;3.50;;
17175;SDS011;8703;48.996;9.594;2023-06-14T04:29:05;4.60;;;3.70;;
17175;SDS011;8703;48.996;9.594;2023-06-14T04:31:33;4.13;;;3.53;;
17175;SDS011;8703;48.996;9.594;2023-06-14T04:34:06;4.90;;;3.60;;
17175;SDS011;8703;48.996;9.594;2023-06-14T04:36:33;4.63;;;3.70;;
17175;SDS011;8703;48.996;9.594;2023-06-14T04:39:02;5.90;;;3.60;;
17175;SDS011;8703;48.996;9.594;2023-06-14T04:41:29;4.10;;;3.70;;
17175;SDS011;8703;48.996;9.594;2023-06-14T04:43:57;6.53;;;3.80;;
17175;SDS011;8703;48.996;9.594;2023-06-14T04:46:26;4.77;;;3.70;;
17175;SDS011;8703;48.996;9.594;2023-06-14T04:48:55;4.43;;;3.60;;
17175;SDS011;8703;48.996;9.594;2023-06-14T04:51:24;5.97;;;4.00;;
17175;SDS011;8703;48.996;9.594;2023-06-14T04:53:54;4.70;;;3.53;;
17175;SDS011;8703;48.996;9.594;2023-06-14T04:56:23;4.73;;;3.60;;
17175;SDS011;8703;48.996;9.594;2023-06-14T04:58:51;4.70;;;4.10;;
17175;SDS011;8703;48.996;9.594;2023-06-14T05:01:19;6.07;;;3.67;;
17175;SDS011;8703;48.996;9.594;2023-06-14T05:03:48;5.13;;;3.90;;
17175;SDS011;8703;48.996;9.594;2023-06-14T05:06:15;6.13;;;3.80;;
17175;SDS011;8703;48.996;9.594;2023-06-14T05:08:44;5.47;;;4.07;;
17175;SDS011;8703;48.996;9.594;2023-06-14T05:11:12;7.43;;;3.90;;
17175;SDS011;8703;48.996;9.594;2023-06-14T05:13:39;9.40;;;4.43;;
17175;SDS011;8703;48.996;9.594;2023-06-14T05:16:07;4.80;;;3.87;;
17175;SDS011;8703;48.996;9.594;2023-06-14T05:18:35;5.27;;;3.70;;
17175;SDS011;8703;48.996;9.594;2023-06-14T05:21:02;5.20;;;3.77;;
17175;SDS011;8703;48.996;9.594;2023-06-14T05:23:30;6.10;;;3.90;;
17175;SDS011;8703;48.996;9.594;2023-06-14T05:25:59;4.60;;;3.77;;
17175;SDS011;8703;48.996;9.594;2023-06-14T05:28:27;6.20;;;4.00;;
17175;SDS011;8703;48.996;9.594;2023-06-14T05:30:55;4.83;;;3.80;;
17175;SDS011;8703;48.996;9.594;2023-06-14T05:33:23;4.40;;;3.77;;
17175;SDS011;8703;48.996;9.594;2023-06-14T05:35:50;4.83;;;4.13;;
17175;SDS011;8703;48.996;9.594;2023-06-14T05:38:18;7.47;;;4.10;;
17175;SDS011;8703;48.996;9.594;2023-06-14T05:40:45;12.87;;;5.00;;
17175;SDS011;8703;48.996;9.594;2023-06-14T05:43:14;12.90;;;4.60;;
17175;SDS011;8703;48.996;9.594;2023-06-14T05:45:41;8.57;;;4.67;;
17175;SDS011;8703;48.996;9.594;2023-06-14T05:48:08;7.20;;;4.70;;
17175;SDS011;8703;48.996;9.594;2023-06-14T05:50:36;6.23;;;4.47;;
17175;SDS011;8703;48.996;9.594;2023-06-14T05:53:03;7.87;;;4.47;;
17175;SDS011;8703;48.996;9.594;2023-06-14T05:55:31;5.10;;;4.40;;
17175;SDS011;8703;48.996;9.594;2023-06-14T05:57:58;6.13;;;4.23;;
17175;SDS011;8703;48.996;9.594;2023-06-14T06:00:27;5.60;;;4.10;;
17175;SDS011;8703;48.996;9.594;2023-06-14T06:02:54;7.17;;;4.40;;
17175;SDS011;8703;48.996;9.594;2023-06-14T06:05:23;6.63;;;4.50;;
17175;SDS011;8703;48.996;9.594;2023-06-14T06:07:51;5.90;;;4.40;;
17175;SDS011;8703;48.996;9.594;2023-06-14T06:10:18;7.43;;;4.10;;
17175;SDS011;8703;48.996;9.594;2023-06-14T06:12:46;5.03;;;4.50;;
17175;SDS011;8703;48.996;9.594;2023-06-14T06:15:14;7.30;;;4.20;;
17175;SDS011;8703;48.996;9.594;2023-06-14T06:17:42;5.60;;;4.80;;
17175;SDS011;8703;48.996;9.594;2023-06-14T06:20:10;4.70;;;3.90;;
17175;SDS011;8703;48.996;9.594;2023-06-14T06:22:38;6.07;;;4.70;;
17175;SDS011;8703;48.996;9.594;2023-06-14T06:25:06;6.17;;;4.37;;
17175;SDS011;8703;48.996;9.594;2023-06-14T06:27:34;6.47;;;4.67;;
17175;SDS011;8703;48.996;9.594;2023-06-14T06:30:02;6.80;;;4.33;;
17175;SDS011;8703;48.996;9.594;2023-06-14T06:32:30;7.20;;;4.00;;
17175;SDS011;8703;48.996;9.594;2023-06-14T06:34:59;6.33;;;4.63;;
17175;SDS011;8703;48.996;9.594;2023-06-14T06:37:26;5.73;;;4.20;;
17175;SDS011;8703;48.996;9.594;2023-06-14T06:39:54;6.83;;;4.30;;
17175;SDS011;8703;48.996;9.594;2023-06-14T06:42:21;9.30;;;4.67;;
17175;SDS011;8703;48.996;9.594;2023-06-14T06:44:48;8.10;;;4.60;;
17175;SDS011;8703;48.996;9.594;2023-06-14T06:47:15;8.77;;;5.00;;
17175;SDS011;8703;48.996;9.594;2023-06-14T06:49:43;9.07;;;4.20;;
17175;SDS011;8703;48.996;9.594;2023-06-14T06:52:12;7.73;;;4.47;;
17175;SDS011;8703;48.996;9.594;2023-06-14T06:54:39;6.33;;;4.73;;
17175;SDS011;8703;48.996;9.594;2023-06-14T06:57:06;6.33;;;4.40;;
17175;SDS011;8703;48.996;9.594;2023-06-14T06:59:34;5.95;;;4.63;;
17175;SDS011;8703;48.996;9.594;2023-06-14T07:02:01;6.77;;;4.23;;
17175;SDS011;8703;48.996;9.594;2023-06-14T07:04:29;7.37;;;5.20;;
17175;SDS011;8703;48.996;9.594;2023-06-14T07:06:57;6.33;;;4.70;;
17175;SDS011;8703;48.996;9.594;2023-06-14T07:09:26;6.18;;;4.60;;
17175;SDS011;8703;48.996;9.594;2023-06-14T07:11:53;5.20;;;4.67;;
17175;SDS011;8703;48.996;9.594;2023-06-14T07:14:20;6.72;;;4.63;;
17175;SDS011;8703;48.996;9.594;2023-06-14T07:16:49;7.68;;;5.30;;
17175;SDS011;8703;48.996;9.594;2023-06-14T07:19:16;18.03;;;13.07;;
17175;SDS011;8703;48.996;9.594;2023-06-14T07:21:45;16.48;;;9.82;;
17175;SDS011;8703;48.996;9.594;2023-06-14T07:24:13;12.35;;;10.23;;
17175;SDS011;8703;48.996;9.594;2023-06-14T07:26:42;7.90;;;5.07;;
17175;SDS011;8703;48.996;9.594;2023-06-14T07:29:09;7.15;;;4.93;;
17175;SDS011;8703;48.996;9.594;2023-06-14T07:31:36;6.55;;;4.57;;
17175;SDS011;8703;48.996;9.594;2023-06-14T07:34:04;4.57;;;4.18;;
17175;SDS011;8703;48.996;9.594;2023-06-14T07:36:31;5.38;;;3.92;;
17175;SDS011;8703;48.996;9.594;2023-06-14T07:38:59;4.90;;;4.32;;
17175;SDS011;8703;48.996;9.594;2023-06-14T07:41:28;6.68;;;4.30;;
17175;SDS011;8703;48.996;9.594;2023-06-14T07:43:57;5.25;;;3.90;;
17175;SDS011;8703;48.996;9.594;2023-06-14T07:46:24;5.47;;;3.90;;
17175;SDS011;8703;48.996;9.594;2023-06-14T07:48:51;4.85;;;4.30;;
17175;SDS011;8703;48.996;9.594;2023-06-14T07:51:19;5.13;;;4.28;;
17175;SDS011;8703;48.996;9.594;2023-06-14T07:53:47;5.72;;;4.72;;
17175;SDS011;8703;48.996;9.594;2023-06-14T07:56:15;6.95;;;4.53;;
17175;SDS011;8703;48.996;9.594;2023-06-14T07:58:42;5.25;;;3.75;;
17175;SDS011;8703;48.996;9.594;2023-06-14T08:01:11;8.15;;;4.18;;
17175;SDS011;8703;48.996;9.594;2023-06-14T08:03:38;5.18;;;4.07;;
17175;SDS011;8703;48.996;9.594;2023-06-14T08:06:06;7.18;;;4.18;;
17175;SDS011;8703;48.996;9.594;2023-06-14T08:08:33;6.80;;;4.00;;
17175;SDS011;8703;48.996;9.594;2023-06-14T08:11:00;5.28;;;4.10;;
17175;SDS011;8703;48.996;9.594;2023-06-14T08:13:28;6.70;;;4.20;;
17175;SDS011;8703;48.996;9.594;2023-06-14T08:15:55;5.63;;;3.92;;
17175;SDS011;8703;48.996;9.594;2023-06-14T08:18:24;6.22;;;4.40;;
17175;SDS011;8703;48.996;9.594;2023-06-14T08:20:52;5.10;;;3.90;;
17175;SDS011;8703;48.996;9.594;2023-06-14T08:23:19;5.18;;;3.60;;
17175;SDS011;8703;48.996;9.594;2023-06-14T08:25:47;4.63;;;3.65;;
17175;SDS011;8703;48.996;9.594;2023-06-14T08:28:14;5.80;;;4.38;;
17175;SDS011;8703;48.996;9.594;2023-06-14T08:30:41;6.43;;;4.20;;
17175;SDS011;8703;48.996;9.594;2023-06-14T08:33:09;5.95;;;3.78;;
17175;SDS011;8703;48.996;9.594;2023-06-14T08:35:37;4.63;;;3.60;;
17175;SDS011;8703;48.996;9.594;2023-06-14T08:38:05;5.03;;;3.55;;
17175;SDS011;8703;48.996;9.594;2023-06-14T08:40:33;6.18;;;4.22;;
17175;SDS011;8703;48.996;9.594;2023-06-14T08:43:04;5.03;;;3.60;;
17175;SDS011;8703;48.996;9.594;2023-06-14T08:45:32;5.22;;;3.90;;
17175;SDS011;8703;48.996;9.594;2023-06-14T08:47:59;6.97;;;3.90;;
17175;SDS011;8703;48.996;9.594;2023-06-14T08:50:27;4.80;;;3.58;;
17175;SDS011;8703;48.996;9.594;2023-06-14T08:52:57;5.25;;;4.25;;
17175;SDS011;8703;48.996;9.594;2023-06-14T08:55:27;6.80;;;3.85;;
17175;SDS011;8703;48.996;9.594;2023-06-14T08:57:55;5.63;;;4.30;;
17175;SDS011;8703;48.996;9.594;2023-06-14T09:00:24;4.50;;;4.10;;
17175;SDS011;8703;48.996;9.594;2023-06-14T09:02:53;5.38;;;3.67;;
17175;SDS011;8703;48.996;9.594;2023-06-14T09:05:23;5.82;;;3.90;;
17175;SDS011;8703;48.996;9.594;2023-06-14T09:07:51;4.20;;;3.60;;
17175;SDS011;8703;48.996;9.594;2023-06-14T09:10:22;4.10;;;3.70;;
17175;SDS011;8703;48.996;9.594;2023-06-14T09:12:50;5.05;;;4.28;;
17175;SDS011;8703;48.996;9.594;2023-06-14T09:15:18;5.30;;;4.15;;
17175;SDS011;8703;48.996;9.594;2023-06-14T09:17:45;5.63;;;3.90;;
17175;SDS011;8703;48.996;9.594;2023-06-14T09:20:13;5.03;;;4.10;;
17175;SDS011;8703;48.996;9.594;2023-06-14T09:22:43;5.75;;;4.05;;
17175;SDS011;8703;48.996;9.594;2023-06-14T09:25:10;4.70;;;3.95;;
17175;SDS011;8703;48.996;9.594;2023-06-14T09:27:41;5.88;;;3.58;;
17175;SDS011;8703;48.996;9.594;2023-06-14T09:30:09;5.90;;;3.53;;
17175;SDS011;8703;48.996;9.594;2023-06-14T09:32:38;4.68;;;3.33;;
17175;SDS011;8703;48.996;9.594;2023-06-14T09:35:06;4.75;;;3.50;;
17175;SDS011;8703;48.996;9.594;2023-06-14T09:37:34;5.35;;;3.88;;
17175;SDS011;8703;48.996;9.594;2023-06-14T09:40:03;5.13;;;3.58;;
17175;SDS011;8703;48.996;9.594;2023-06-14T09:42:32;4.55;;;3.42;;
17175;SDS011;8703;48.996;9.594;2023-06-14T09:45:02;4.97;;;3.97;;
17175;SDS011;8703;48.996;9.594;2023-06-14T09:47:30;5.30;;;3.72;;
17175;SDS011;8703;48.996;9.594;2023-06-14T09:49:58;4.05;;;3.45;;
17175;SDS011;8703;48.996;9.594;2023-06-14T09:52:25;4.80;;;3.67;;
17175;SDS011;8703;48.996;9.594;2023-06-14T09:54:53;4.35;;;3.90;;
17175;SDS011;8703;48.996;9.594;2023-06-14T09:57:22;5.85;;;3.90;;
17175;SDS011;8703;48.996;9.594;2023-06-14T09:59:52;6.85;;;3.67;;
17175;SDS011;8703;48.996;9.594;2023-06-14T10:02:26;5.88;;;3.80;;
17175;SDS011;8703;48.996;9.594;2023-06-14T10:04:58;4.40;;;3.63;;
17175;SDS011;8703;48.996;9.594;2023-06-14T10:07:32;4.93;;;3.40;;
17175;SDS011;8703;48.996;9.594;2023-06-14T10:10:01;4.10;;;3.17;;
17175;SDS011;8703;48.996;9.594;2023-06-14T10:12:29;4.88;;;3.58;;
17175;SDS011;8703;48.996;9.594;2023-06-14T10:14:57;5.15;;;3.70;;
17175;SDS011;8703;48.996;9.594;2023-06-14T10:17:30;5.60;;;3.55;;
17175;SDS011;8703;48.996;9.594;2023-06-14T10:20:10;4.50;;;3.42;;
17175;SDS011;8703;48.996;9.594;2023-06-14T10:22:45;6.50;;;3.53;;
17175;SDS011;8703;48.996;9.594;2023-06-14T10:25:25;5.78;;;3.80;;
17175;SDS011;8703;48.996;9.594;2023-06-14T10:28:01;6.20;;;4.70;;
17175;SDS011;8703;48.996;9.594;2023-06-14T10:30:30;5.25;;;3.95;;
17175;SDS011;8703;48.996;9.594;2023-06-14T10:33:06;4.38;;;3.95;;
17175;SDS011;8703;48.996;9.594;2023-06-14T10:35:35;5.88;;;3.67;;
17175;SDS011;8703;48.996;9.594;2023-06-14T10:38:08;6.03;;;3.90;;
17175;SDS011;8703;48.996;9.594;2023-06-14T10:40:37;6.65;;;4.40;;
17175;SDS011;8703;48.996;9.594;2023-06-14T10:43:21;6.32;;;4.18;;
17175;SDS011;8703;48.996;9.594;2023-06-14T10:48:41;4.25;;;3.67;;
17175;SDS011;8703;48.996;9.594;2023-06-14T10:51:15;6.07;;;3.97;;
17175;SDS011;8703;48.996;9.594;2023-06-14T10:53:45;5.72;;;4.70;;
17175;SDS011;8703;48.996;9.594;2023-06-14T10:56:23;4.40;;;3.70;;
17175;SDS011;8703;48.996;9.594;2023-06-14T10:58:54;3.85;;;3.53;;
17175;SDS011;8703;48.996;9.594;2023-06-14T11:01:24;4.00;;;3.60;;
17175;SDS011;8703;48.996;9.594;2023-06-14T11:04:07;5.93;;;4.20;;
17175;SDS011;8703;48.996;9.594;2023-06-14T11:06:46;4.97;;;3.80;;
17175;SDS011;8703;48.996;9.594;2023-06-14T11:09:20;5.55;;;4.22;;
17175;SDS011;8703;48.996;9.594;2023-06-14T11:12:03;4.57;;;4.05;;
17175;SDS011;8703;48.996;9.594;2023-06-14T11:14:31;7.55;;;4.03;;
17175;SDS011;8703;48.996;9.594;2023-06-14T11:16:58;4.63;;;3.78;;
17175;SDS011;8703;48.996;9.594;2023-06-14T11:19:27;8.55;;;5.20;;
17175;SDS011;8703;48.996;9.594;2023-06-14T11:21:55;5.72;;;4.60;;
17175;SDS011;8703;48.996;9.594;2023-06-14T11:24:22;6.70;;;4.70;;
17175;SDS011;8703;48.996;9.594;2023-06-14T11:26:50;5.03;;;4.47;;
17175;SDS011;8703;48.996;9.594;2023-06-14T11:29:19;4.97;;;4.57;;
17175;SDS011;8703;48.996;9.594;2023-06-14T11:31:48;4.80;;;4.03;;
17175;SDS011;8703;48.996;9.594;2023-06-14T11:34:16;5.13;;;4.18;;
17175;SDS011;8703;48.996;9.594;2023-06-14T11:36:46;5.05;;;4.07;;
17175;SDS011;8703;48.996;9.594;2023-06-14T11:39:13;4.28;;;3.90;;
17175;SDS011;8703;48.996;9.594;2023-06-14T11:41:42;5.38;;;4.38;;
17175;SDS011;8703;48.996;9.594;2023-06-14T11:44:10;4.50;;;3.70;;
17175;SDS011;8703;48.996;9.594;2023-06-14T11:46:38;4.30;;;3.92;;
17175;SDS011;8703;48.996;9.594;2023-06-14T11:49:06;4.60;;;4.03;;
17175;SDS011;8703;48.996;9.594;2023-06-14T11:51:35;7.50;;;4.15;;
17175;SDS011;8703;48.996;9.594;2023-06-14T11:54:04;4.70;;;4.10;;
17175;SDS011;8703;48.996;9.594;2023-06-14T11:56:32;4.20;;;3.80;;
17175;SDS011;8703;48.996;9.594;2023-06-14T11:59:02;4.45;;;4.05;;
17175;SDS011;8703;48.996;9.594;2023-06-14T12:01:30;4.47;;;4.07;;
17175;SDS011;8703;48.996;9.594;2023-06-14T12:03:58;5.32;;;4.55;;
17175;SDS011;8703;48.996;9.594;2023-06-14T12:06:27;6.45;;;5.60;;
17175;SDS011;8703;48.996;9.594;2023-06-14T12:08:58;6.22;;;5.55;;
17175;SDS011;8703;48.996;9.594;2023-06-14T12:11:31;8.57;;;7.88;;
17175;SDS011;8703;48.996;9.594;2023-06-14T12:13:59;8.57;;;7.90;;
17175;SDS011;8703;48.996;9.594;2023-06-14T12:16:32;7.68;;;7.10;;
17175;SDS011;8703;48.996;9.594;2023-06-14T12:19:07;8.40;;;7.82;;
17175;SDS011;8703;48.996;9.594;2023-06-14T12:21:36;7.13;;;6.53;;
17175;SDS011;8703;48.996;9.594;2023-06-14T12:24:05;7.05;;;6.63;;
17175;SDS011;8703;48.996;9.594;2023-06-14T12:26:37;10.10;;;9.35;;
17175;SDS011;8703;48.996;9.594;2023-06-14T12:29:06;9.77;;;9.00;;
17175;SDS011;8703;48.996;9.594;2023-06-14T12:31:33;8.65;;;7.70;;
17175;SDS011;8703;48.996;9.594;2023-06-14T12:34:01;6.95;;;6.32;;
17175;SDS011;8703;48.996;9.594;2023-06-14T12:36:28;9.07;;;8.40;;
17175;SDS011;8703;48.996;9.594;2023-06-14T12:38:57;7.28;;;6.65;;
17175;SDS011;8703;48.996;9.594;2023-06-14T12:41:24;8.23;;;7.18;;
17175;SDS011;8703;48.996;9.594;2023-06-14T12:43:53;11.18;;;9.93;;
17175;SDS011;8703;48.996;9.594;2023-06-14T12:46:22;10.35;;;9.65;;
17175;SDS011;8703;48.996;9.594;2023-06-14T12:48:50;10.32;;;9.63;;
17175;SDS011;8703;48.996;9.594;2023-06-14T12:51:18;12.27;;;11.00;;
17175;SDS011;8703;48.996;9.594;2023-06-14T12:53:45;12.88;;;12.00;;
17175;SDS011;8703;48.996;9.594;2023-06-14T12:56:13;13.48;;;12.70;;
17175;SDS011;8703;48.996;9.594;2023-06-14T12:58:41;16.38;;;15.25;;
17175;SDS011;8703;48.996;9.594;2023-06-14T13:01:10;20.52;;;19.35;;
17175;SDS011;8703;48.996;9.594;2023-06-14T13:03:37;27.70;;;26.23;;
17175;SDS011;8703;48.996;9.594;2023-06-14T13:06:04;28.38;;;26.92;;
17175;SDS011;8703;48.996;9.594;2023-06-14T13:08:32;20.60;;;19.40;;
17175;SDS011;8703;48.996;9.594;2023-06-14T13:10:59;26.98;;;25.30;;
17175;SDS011;8703;48.996;9.594;2023-06-14T13:13:26;28.85;;;27.15;;
17175;SDS011;8703;48.996;9.594;2023-06-14T13:15:54;39.85;;;37.78;;
17175;SDS011;8703;48.996;9.594;2023-06-14T13:18:23;59.08;;;55.78;;
17175;SDS011;8703;48.996;9.594;2023-06-14T13:20:50;71.85;;;68.20;;
17175;SDS011;8703;48.996;9.594;2023-06-14T13:23:17;78.65;;;74.75;;
17175;SDS011;8703;48.996;9.594;2023-06-14T13:25:45;112.75;;;106.90;;
17175;SDS011;8703;48.996;9.594;2023-06-14T13:28:14;86.32;;;81.88;;
17175;SDS011;8703;48.996;9.594;2023-06-14T13:30:42;115.25;;;109.50;;
17175;SDS011;8703;48.996;9.594;2023-06-14T13:33:10;73.95;;;70.28;;
17175;SDS011;8703;48.996;9.594;2023-06-14T13:35:38;89.32;;;84.65;;
17175;SDS011;8703;48.996;9.594;2023-06-14T13:38:06;67.05;;;63.55;;
17175;SDS011;8703;48.996;9.594;2023-06-14T13:40:34;60.35;;;56.90;;
17175;SDS011;8703;48.996;9.594;2023-06-14T13:43:01;48.97;;;45.85;;
17175;SDS011;8703;48.996;9.594;2023-06-14T13:45:29;56.83;;;53.90;;
17175;SDS011;8703;48.996;9.594;2023-06-14T13:47:56;42.85;;;40.55;;
17175;SDS011;8703;48.996;9.594;2023-06-14T13:50:23;41.55;;;39.08;;
17175;SDS011;8703;48.996;9.594;2023-06-14T13:52:52;33.42;;;31.45;;
17175;SDS011;8703;48.996;9.594;2023-06-14T13:55:19;29.08;;;27.40;;
17175;SDS011;8703;48.996;9.594;2023-06-14T13:57:47;27.60;;;25.95;;
17175;SDS011;8703;48.996;9.594;2023-06-14T14:00:15;21.85;;;20.50;;
17175;SDS011;8703;48.996;9.594;2023-06-14T14:02:44;17.05;;;15.85;;
17175;SDS011;8703;48.996;9.594;2023-06-14T14:05:11;19.00;;;17.48;;
17175;SDS011;8703;48.996;9.594;2023-06-14T14:07:38;13.82;;;12.70;;
17175;SDS011;8703;48.996;9.594;2023-06-14T14:10:08;14.27;;;13.23;;
17175;SDS011;8703;48.996;9.594;2023-06-14T14:12:38;12.73;;;11.75;;
17175;SDS011;8703;48.996;9.594;2023-06-14T14:15:05;15.55;;;14.63;;
17175;SDS011;8703;48.996;9.594;2023-06-14T14:17:37;14.90;;;13.80;;
17175;SDS011;8703;48.996;9.594;2023-06-14T14:20:05;14.63;;;13.73;;
17175;SDS011;8703;48.996;9.594;2023-06-14T14:22:33;19.88;;;18.75;;
17175;SDS011;8703;48.996;9.594;2023-06-14T14:25:00;28.25;;;26.50;;
17175;SDS011;8703;48.996;9.594;2023-06-14T14:27:29;22.95;;;21.30;;
17175;SDS011;8703;48.996;9.594;2023-06-14T14:29:57;32.53;;;30.67;;
17175;SDS011;8703;48.996;9.594;2023-06-14T14:32:24;42.30;;;40.00;;
17175;SDS011;8703;48.996;9.594;2023-06-14T14:34:51;38.65;;;36.08;;
17175;SDS011;8703;48.996;9.594;2023-06-14T14:37:19;52.60;;;49.85;;
17175;SDS011;8703;48.996;9.594;2023-06-14T14:39:46;51.75;;;48.88;;
17175;SDS011;8703;48.996;9.594;2023-06-14T14:42:13;64.15;;;60.78;;
17175;SDS011;8703;48.996;9.594;2023-06-14T14:44:42;66.03;;;62.58;;
17175;SDS011;8703;48.996;9.594;2023-06-14T14:47:10;59.40;;;56.20;;
17175;SDS011;8703;48.996;9.594;2023-06-14T14:49:37;94.55;;;89.75;;
17175;SDS011;8703;48.996;9.594;2023-06-14T14:52:05;76.03;;;72.18;;
17175;SDS011;8703;48.996;9.594;2023-06-14T14:54:33;107.05;;;101.78;;
17175;SDS011;8703;48.996;9.594;2023-06-14T14:57:00;82.95;;;78.90;;
17175;SDS011;8703;48.996;9.594;2023-06-14T14:59:28;69.93;;;66.32;;
17175;SDS011;8703;48.996;9.594;2023-06-14T15:01:57;107.20;;;101.72;;
17175;SDS011;8703;48.996;9.594;2023-06-14T15:04:24;86.28;;;82.00;;
17175;SDS011;8703;48.996;9.594;2023-06-14T15:06:52;65.75;;;62.35;;